createdAt,value
2022-12-17T00:00:51.557Z,118.47
2022-12-17T00:03:38.147Z,111.20
2022-12-17T00:06:23.890Z,86.97
2022-12-17T00:09:09.626Z,128.20
2022-12-17T00:11:56.167Z,81.25
2022-12-17T00:14:41.604Z,93.13
2022-12-17T00:17:26.951Z,71.70
2022-12-17T00:20:12.214Z,66.53
2022-12-17T00:22:58.037Z,70.00
2022-12-17T00:25:44.652Z,74.35
2022-12-17T00:28:31.426Z,61.78
2022-12-17T00:31:17.139Z,65.53
2022-12-17T00:34:02.706Z,58.10
2022-12-17T00:36:48.125Z,57.78
2022-12-17T00:39:34.062Z,60.35
2022-12-17T00:42:19.661Z,54.22
2022-12-17T00:45:05.310Z,67.35
2022-12-17T00:47:50.868Z,55.67
2022-12-17T00:50:36.316Z,62.33
2022-12-17T00:53:22.024Z,59.40
2022-12-17T00:56:07.625Z,55.65
2022-12-17T00:58:53.138Z,60.35
2022-12-17T01:01:46.956Z,66.93
2022-12-17T01:04:32.646Z,71.30
2022-12-17T01:07:17.990Z,61.28
2022-12-17T01:10:03.446Z,57.78
2022-12-17T01:12:48.853Z,81.22
2022-12-17T01:15:34.413Z,74.30
2022-12-17T01:18:19.815Z,59.88
2022-12-17T01:21:09.695Z,66.38
2022-12-17T01:23:55.324Z,61.72
2022-12-17T01:26:42.863Z,66.93
2022-12-17T01:29:28.504Z,70.07
2022-12-17T01:32:14.622Z,101.30
2022-12-17T01:35:00.077Z,73.28
2022-12-17T01:37:45.493Z,105.15
2022-12-17T01:40:31.304Z,84.35
2022-12-17T01:43:18.023Z,93.32
2022-12-17T01:46:07.098Z,85.97
2022-12-17T01:49:05.516Z,89.60
2022-12-17T01:51:52.108Z,92.70
2022-12-17T01:54:37.815Z,92.15
2022-12-17T01:57:25.283Z,115.22
2022-12-17T02:00:27.401Z,90.75
2022-12-17T02:03:15.828Z,86.53
2022-12-17T02:06:16.822Z,77.57
2022-12-17T02:09:07.791Z,68.43
2022-12-17T02:12:13.419Z,101.35
2022-12-17T02:15:07.207Z,85.57
2022-12-17T02:18:01.173Z,171.68
2022-12-17T02:21:07.459Z,123.53
2022-12-17T02:24:16.409Z,86.10
2022-12-17T02:27:23.881Z,112.40
2022-12-17T02:30:16.514Z,78.05
2022-12-17T02:33:05.402Z,75.40
2022-12-17T02:36:04.615Z,65.57
2022-12-17T02:38:51.886Z,62.70
2022-12-17T02:41:46.409Z,67.78
2022-12-17T02:44:36.775Z,54.63
2022-12-17T02:47:25.373Z,64.63
2022-12-17T02:50:11.334Z,56.70
2022-12-17T02:53:00.282Z,46.53
2022-12-17T02:55:46.221Z,54.80
2022-12-17T02:58:32.212Z,55.20
2022-12-17T03:01:19.748Z,56.03
2022-12-17T03:04:05.323Z,50.95
2022-12-17T03:06:51.008Z,49.78
2022-12-17T03:09:36.547Z,44.03
2022-12-17T03:12:23.195Z,54.72
2022-12-17T03:15:08.843Z,55.75
2022-12-17T03:17:54.522Z,48.25
2022-12-17T03:20:40.038Z,43.67
2022-12-17T03:23:28.641Z,42.72
2022-12-17T03:26:18.414Z,41.22
2022-12-17T03:29:04.210Z,41.13
2022-12-17T03:31:49.909Z,44.20
2022-12-17T03:34:35.382Z,43.78
2022-12-17T03:37:21.167Z,46.70
2022-12-17T03:40:06.735Z,48.03
2022-12-17T03:43:02.905Z,40.85
2022-12-17T03:45:48.740Z,43.08
2022-12-17T03:48:34.612Z,45.20
2022-12-17T03:51:20.747Z,41.67
2022-12-17T03:54:07.013Z,39.20
2022-12-17T03:56:53.086Z,36.50
2022-12-17T03:59:39.097Z,37.05
2022-12-17T04:02:25.377Z,40.15
2022-12-17T04:05:18.164Z,43.70
2022-12-17T04:08:05.447Z,42.83
2022-12-17T04:10:50.854Z,47.42
2022-12-17T04:13:40.711Z,50.28
2022-12-17T04:16:28.066Z,48.90
2022-12-17T04:19:30.346Z,47.25
2022-12-17T04:22:15.978Z,55.17
2022-12-17T04:25:01.491Z,47.45
2022-12-17T04:27:46.927Z,53.78
2022-12-17T04:30:32.495Z,49.95
2022-12-17T04:33:17.856Z,53.47
2022-12-17T04:36:03.432Z,52.97
2022-12-17T04:38:56.740Z,52.72
2022-12-17T04:41:42.403Z,46.97
2022-12-17T04:44:27.737Z,49.55
2022-12-17T04:47:13.333Z,49.67
2022-12-17T04:49:58.849Z,46.03
2022-12-17T04:52:44.440Z,55.70
2022-12-17T04:55:30.182Z,46.20
2022-12-17T04:58:23.736Z,49.25
2022-12-17T05:01:13.476Z,49.55
2022-12-17T05:03:59.700Z,45.83
2022-12-17T05:06:45.323Z,45.28
2022-12-17T05:09:30.927Z,46.95
2022-12-17T05:12:16.481Z,43.75
2022-12-17T05:15:02.227Z,43.80
2022-12-17T05:17:47.907Z,42.67
2022-12-17T05:20:33.708Z,41.70
2022-12-17T05:23:26.681Z,48.80
2022-12-17T05:26:25.741Z,44.40
2022-12-17T05:29:15.803Z,46.65
2022-12-17T05:32:01.655Z,41.25
2022-12-17T05:34:47.407Z,40.42
2022-12-17T05:37:32.807Z,42.65
2022-12-17T05:40:18.616Z,44.40
2022-12-17T05:43:17.242Z,40.53
2022-12-17T05:46:03.670Z,56.88
2022-12-17T05:48:50.013Z,57.63
2022-12-17T05:51:38.698Z,51.13
2022-12-17T05:54:25.860Z,51.10
2022-12-17T05:57:12.615Z,47.28
2022-12-17T05:59:58.236Z,43.50
2022-12-17T06:02:44.569Z,45.92
2022-12-17T06:05:30.333Z,49.45
2022-12-17T06:08:26.675Z,47.60
2022-12-17T06:11:13.128Z,49.08
2022-12-17T06:13:58.951Z,42.75
2022-12-17T06:16:44.897Z,44.45
2022-12-17T06:19:30.377Z,50.50
2022-12-17T06:22:16.094Z,50.05
2022-12-17T06:25:01.563Z,48.42
2022-12-17T06:27:47.237Z,48.78
2022-12-17T06:30:32.688Z,50.38
2022-12-17T06:33:26.180Z,62.40
2022-12-17T06:36:19.751Z,49.65
2022-12-17T06:39:07.371Z,46.00
2022-12-17T06:41:52.787Z,42.13
2022-12-17T06:44:46.087Z,44.17
2022-12-17T06:47:32.013Z,45.47
2022-12-17T06:50:17.715Z,42.47
2022-12-17T06:53:03.474Z,44.10
2022-12-17T06:55:48.941Z,46.63
2022-12-17T06:58:34.626Z,44.63
2022-12-17T07:01:20.326Z,41.67
2022-12-17T07:04:05.838Z,41.50
2022-12-17T07:06:51.286Z,43.97
2022-12-17T07:09:36.848Z,36.42
2022-12-17T07:12:22.505Z,41.25
2022-12-17T07:15:08.380Z,46.83
2022-12-17T07:17:53.838Z,50.85
2022-12-17T07:20:39.609Z,41.78
2022-12-17T07:23:25.477Z,50.50
2022-12-17T07:26:10.869Z,45.30
2022-12-17T07:28:56.287Z,47.08
2022-12-17T07:31:41.858Z,43.13
2022-12-17T07:34:27.487Z,50.20
2022-12-17T07:37:17.359Z,54.90
2022-12-17T07:40:05.738Z,51.50
2022-12-17T07:42:51.074Z,50.30
2022-12-17T07:45:36.712Z,50.17
2022-12-17T07:48:22.299Z,51.20
2022-12-17T07:51:08.817Z,55.75
2022-12-17T07:53:54.605Z,45.50
2022-12-17T07:56:40.492Z,49.10
2022-12-17T07:59:25.907Z,57.03
2022-12-17T08:02:14.810Z,50.70
2022-12-17T08:05:00.675Z,49.63
2022-12-17T08:07:46.598Z,57.45
2022-12-17T08:10:32.152Z,45.10
2022-12-17T08:13:19.969Z,44.92
2022-12-17T08:16:06.307Z,43.80
2022-12-17T08:18:52.252Z,46.08
2022-12-17T08:21:38.030Z,48.53
2022-12-17T08:24:24.170Z,45.60
2022-12-17T08:27:09.817Z,45.17
2022-12-17T08:29:55.638Z,51.00
2022-12-17T08:32:41.295Z,48.70
2022-12-17T08:35:26.966Z,43.00
2022-12-17T08:38:12.746Z,44.92
2022-12-17T08:40:58.129Z,52.45
2022-12-17T08:43:44.030Z,52.70
2022-12-17T08:46:29.957Z,43.05
2022-12-17T08:49:15.542Z,43.25
2022-12-17T08:52:01.016Z,44.50
2022-12-17T08:54:46.897Z,42.00
2022-12-17T08:57:32.695Z,43.97
2022-12-17T09:00:18.245Z,51.47
2022-12-17T09:03:04.121Z,42.05
2022-12-17T09:05:49.764Z,42.55
2022-12-17T09:08:35.230Z,38.70
2022-12-17T09:11:20.954Z,38.72
2022-12-17T09:14:06.770Z,36.85
2022-12-17T09:16:52.231Z,36.90
2022-12-17T09:19:37.774Z,40.17
2022-12-17T09:22:23.396Z,40.28
2022-12-17T09:25:10.633Z,42.65
2022-12-17T09:27:56.123Z,43.78
2022-12-17T09:30:41.573Z,43.97
2022-12-17T09:33:27.569Z,34.22
2022-12-17T09:36:13.025Z,36.42
2022-12-17T09:38:58.708Z,36.17
2022-12-17T09:41:59.680Z,42.08
2022-12-17T09:45:06.733Z,41.42
2022-12-17T09:48:32.552Z,45.20
2022-12-17T09:51:18.522Z,47.90
2022-12-17T09:54:09.221Z,42.15
2022-12-17T09:56:55.740Z,43.20
2022-12-17T09:59:53.330Z,41.42
2022-12-17T10:03:06.978Z,41.05
2022-12-17T10:05:53.764Z,41.10
2022-12-17T10:08:40.092Z,46.60
2022-12-17T10:11:47.300Z,48.13
2022-12-17T10:14:59.095Z,39.90
2022-12-17T10:17:44.646Z,45.75
2022-12-17T10:20:40.022Z,46.40
2022-12-17T10:23:25.681Z,42.10
2022-12-17T10:26:15.925Z,39.72
2022-12-17T10:29:01.544Z,40.42
2022-12-17T10:31:49.342Z,43.25
2022-12-17T10:34:37.564Z,41.05
2022-12-17T10:37:24.855Z,38.85
2022-12-17T10:40:19.032Z,41.00
2022-12-17T10:43:04.691Z,41.45
2022-12-17T10:45:55.177Z,38.67
2022-12-17T10:48:40.718Z,37.38
2022-12-17T10:51:36.822Z,42.17
2022-12-17T10:54:50.112Z,40.15
2022-12-17T10:57:56.029Z,42.65
2022-12-17T11:00:49.832Z,35.72
2022-12-17T11:03:45.227Z,36.97
2022-12-17T11:06:53.751Z,34.33
2022-12-17T11:09:46.650Z,40.97
2022-12-17T11:12:34.850Z,43.85
2022-12-17T11:15:52.288Z,38.75
2022-12-17T11:18:49.165Z,38.42
2022-12-17T11:21:41.467Z,33.80
2022-12-17T11:24:35.376Z,35.90
2022-12-17T11:27:22.526Z,38.83
2022-12-17T11:30:08.125Z,35.20
2022-12-17T11:33:12.494Z,34.80
2022-12-17T11:36:13.147Z,30.80
2022-12-17T11:39:06.634Z,17.27
2022-12-17T11:41:57.930Z,9.00
2022-12-17T11:45:12.539Z,6.25
2022-12-17T11:48:15.326Z,7.57
2022-12-17T11:51:16.355Z,6.70
2022-12-17T11:54:19.770Z,6.63
2022-12-17T11:57:19.960Z,5.90
2022-12-17T12:00:20.274Z,4.60
2022-12-17T12:03:33.061Z,4.47
2022-12-17T12:06:21.633Z,3.80
2022-12-17T12:09:26.110Z,3.00
2022-12-17T12:12:23.800Z,3.40
2022-12-17T12:15:31.210Z,3.40
2022-12-17T12:18:52.212Z,4.45
2022-12-17T12:21:52.459Z,3.30
2022-12-17T12:25:06.157Z,4.60
2022-12-17T12:28:07.901Z,3.88
2022-12-17T12:33:54.163Z,4.70
2022-12-17T12:36:42.626Z,4.90
2022-12-17T12:39:32.188Z,5.47
2022-12-17T12:42:25.994Z,4.50
2022-12-17T12:45:49.197Z,4.00
2022-12-17T12:48:58.933Z,5.43
2022-12-17T12:51:52.763Z,5.95
2022-12-17T12:54:47.884Z,5.80
2022-12-17T12:57:53.641Z,6.90
2022-12-17T13:01:09.593Z,6.90
2022-12-17T13:04:03.379Z,5.05
2022-12-17T13:06:42.406Z,2.72
2022-12-17T13:09:15.603Z,3.92
2022-12-17T13:11:45.272Z,3.08
2022-12-17T13:14:18.340Z,2.28
2022-12-17T13:16:45.401Z,2.20
2022-12-17T13:19:40.739Z,1.70
2022-12-17T13:22:23.701Z,2.10
2022-12-17T13:24:53.539Z,3.03
2022-12-17T13:27:35.836Z,1.88
2022-12-17T13:30:38.040Z,1.88
2022-12-17T13:33:26.362Z,2.15
2022-12-17T13:35:59.360Z,2.00
2022-12-17T13:38:49.487Z,1.63
2022-12-17T13:41:22.197Z,2.17
2022-12-17T13:43:57.068Z,2.42
2022-12-17T13:46:28.731Z,2.35
2022-12-17T13:49:04.935Z,2.17
2022-12-17T13:51:34.327Z,2.75
2022-12-17T13:54:03.703Z,2.35
2022-12-17T13:56:37.002Z,2.75
2022-12-17T13:59:09.284Z,2.15
2022-12-17T14:01:48.392Z,2.08
2022-12-17T14:04:24.785Z,2.45
2022-12-17T14:06:54.070Z,3.28
2022-12-17T14:09:24.217Z,3.15
2022-12-17T14:12:10.143Z,2.38
2022-12-17T14:14:39.283Z,2.65
2022-12-17T14:17:14.957Z,1.83
2022-12-17T14:19:42.071Z,1.70
2022-12-17T14:22:16.611Z,1.98
2022-12-17T14:24:43.752Z,2.42
2022-12-17T14:27:27.057Z,2.42
2022-12-17T14:29:54.258Z,2.20
2022-12-17T14:32:30.489Z,1.88
2022-12-17T14:35:00.839Z,4.28
2022-12-17T14:37:29.168Z,3.00
2022-12-17T14:40:01.753Z,3.42
2022-12-17T14:42:29.732Z,6.07
2022-12-17T14:44:59.977Z,9.20
2022-12-17T14:47:28.502Z,9.02
2022-12-17T14:50:07.327Z,12.82
2022-12-17T14:52:40.613Z,13.15
2022-12-17T14:55:25.766Z,19.73
2022-12-17T14:58:08.015Z,18.58
2022-12-17T15:00:42.039Z,19.63
2022-12-17T15:03:15.870Z,11.80
2022-12-17T15:05:43.109Z,6.90
2022-12-17T15:08:11.576Z,6.85
2022-12-17T15:10:38.551Z,3.83
2022-12-17T15:13:08.179Z,3.97
2022-12-17T15:15:35.233Z,4.88
2022-12-17T15:18:02.195Z,3.78
2022-12-17T15:20:29.209Z,3.72
2022-12-17T15:22:56.232Z,4.15
2022-12-17T15:25:23.337Z,4.13
2022-12-17T15:27:51.476Z,3.35
2022-12-17T15:30:18.774Z,3.58
2022-12-17T15:32:47.408Z,4.22
2022-12-17T15:35:15.080Z,3.38
2022-12-17T15:37:42.111Z,4.53
2022-12-17T15:40:12.063Z,3.42
2022-12-17T15:43:02.909Z,3.72
2022-12-17T15:45:32.275Z,3.53
2022-12-17T15:47:59.429Z,4.20
2022-12-17T15:50:28.537Z,3.78
2022-12-17T15:52:55.700Z,5.57
2022-12-17T15:55:23.022Z,3.08
2022-12-17T15:57:50.054Z,5.10
2022-12-17T16:00:18.710Z,3.53
2022-12-17T16:02:47.355Z,4.47
2022-12-17T16:05:14.766Z,3.20
2022-12-17T16:07:43.855Z,3.28
2022-12-17T16:10:13.193Z,5.13
2022-12-17T16:12:40.381Z,3.67
2022-12-17T16:15:08.274Z,14.10
2022-12-17T16:17:36.482Z,10.27
2022-12-17T16:20:06.063Z,6.75
2022-12-17T16:22:33.771Z,3.15
2022-12-17T16:25:00.803Z,6.68
2022-12-17T16:27:28.254Z,5.95
2022-12-17T16:29:55.622Z,4.15
2022-12-17T16:32:22.851Z,4.47
2022-12-17T16:34:50.087Z,6.07
2022-12-17T16:37:17.335Z,5.32
2022-12-17T16:39:44.498Z,4.95
2022-12-17T16:42:11.782Z,6.60
2022-12-17T16:44:39.136Z,11.13
2022-12-17T16:47:06.808Z,14.88
2022-12-17T16:49:34.191Z,24.88
2022-12-17T16:52:02.680Z,11.15
2022-12-17T16:54:32.890Z,12.38
2022-12-17T16:57:02.072Z,8.10
2022-12-17T16:59:29.948Z,6.22
2022-12-17T17:01:57.589Z,9.23
2022-12-17T17:04:24.883Z,8.20
2022-12-17T17:06:54.441Z,9.38
2022-12-17T17:09:22.731Z,10.80
2022-12-17T17:11:52.176Z,7.35
2022-12-17T17:14:19.911Z,8.50
2022-12-17T17:16:46.912Z,12.20
2022-12-17T17:27:59.612Z,12.50
2022-12-17T17:30:27.682Z,7.82
2022-12-17T17:32:54.727Z,14.40
2022-12-17T17:35:21.821Z,9.57
2022-12-17T17:37:48.823Z,8.88
2022-12-17T17:40:15.820Z,9.30
2022-12-17T17:42:45.068Z,11.13
2022-12-17T17:45:15.713Z,13.35
2022-12-17T17:47:42.760Z,18.85
2022-12-17T17:50:10.167Z,12.82
2022-12-17T17:52:37.166Z,10.88
2022-12-17T17:55:05.131Z,9.98
2022-12-17T17:57:32.261Z,10.18
2022-12-17T17:59:59.395Z,8.43
2022-12-17T18:02:26.675Z,7.57
2022-12-17T18:04:53.959Z,8.18
2022-12-17T18:07:26.055Z,9.38
2022-12-17T18:09:54.123Z,7.53
2022-12-17T18:12:40.267Z,9.98
2022-12-17T18:15:17.368Z,8.25
2022-12-17T18:17:47.101Z,12.32
2022-12-17T18:20:14.579Z,14.75
2022-12-17T18:22:42.342Z,14.30
2022-12-17T18:25:10.525Z,15.63
2022-12-17T18:27:38.448Z,13.05
2022-12-17T18:30:06.164Z,11.10
2022-12-17T18:32:33.217Z,12.70
2022-12-17T18:35:00.700Z,13.68
2022-12-17T18:37:27.778Z,14.80
2022-12-17T18:39:54.761Z,13.05
2022-12-17T18:42:40.188Z,12.60
2022-12-17T18:45:07.901Z,13.98
2022-12-17T18:47:35.063Z,14.65
2022-12-17T18:50:02.298Z,15.57
2022-12-17T18:52:29.396Z,14.38
2022-12-17T18:54:56.600Z,13.15
2022-12-17T18:57:23.989Z,14.77
2022-12-17T18:59:54.380Z,15.43
2022-12-17T19:02:21.565Z,15.73
2022-12-17T19:04:48.825Z,15.63
2022-12-17T19:07:15.973Z,18.67
2022-12-17T19:09:43.489Z,16.83
2022-12-17T19:12:11.221Z,16.88
2022-12-17T19:14:38.568Z,18.20
2022-12-17T19:17:07.051Z,17.17
2022-12-17T19:19:34.583Z,17.05
2022-12-17T19:22:02.181Z,17.45
2022-12-17T19:24:29.666Z,27.02
2022-12-17T19:26:57.164Z,22.92
2022-12-17T19:29:24.478Z,51.40
2022-12-17T19:31:52.046Z,29.55
2022-12-17T19:34:20.199Z,21.70
2022-12-17T19:36:48.279Z,26.27
2022-12-17T19:39:18.706Z,28.52
2022-12-17T19:41:45.890Z,24.67
2022-12-17T19:44:15.955Z,20.30
2022-12-17T19:46:43.665Z,22.00
2022-12-17T19:49:15.727Z,21.80
2022-12-17T19:51:44.579Z,26.73
2022-12-17T19:54:14.198Z,23.73
2022-12-17T19:56:42.536Z,24.85
2022-12-17T19:59:11.350Z,30.33
2022-12-17T20:01:43.017Z,26.38
2022-12-17T20:04:12.600Z,23.33
2022-12-17T20:06:39.951Z,24.92
2022-12-17T20:09:08.343Z,19.33
2022-12-17T20:11:36.299Z,23.45
2022-12-17T20:14:13.945Z,25.65
2022-12-17T20:17:00.504Z,25.77
2022-12-17T20:19:32.430Z,22.40
2022-12-17T20:22:02.224Z,22.50
2022-12-17T20:24:32.322Z,21.05
2022-12-17T20:27:00.689Z,21.92
2022-12-17T20:29:27.893Z,18.27
2022-12-17T20:31:56.665Z,19.60
2022-12-17T20:34:25.111Z,23.65
2022-12-17T20:36:54.165Z,16.85
2022-12-17T20:39:26.665Z,19.23
2022-12-17T20:41:55.487Z,15.85
2022-12-17T20:44:22.564Z,14.18
2022-12-17T20:46:50.020Z,16.33
2022-12-17T20:49:17.181Z,16.38
2022-12-17T20:51:44.330Z,15.57
2022-12-17T20:54:11.902Z,16.27
2022-12-17T20:56:40.664Z,13.57
2022-12-17T20:59:13.367Z,14.77
2022-12-17T21:01:41.070Z,14.07
2022-12-17T21:04:08.578Z,12.20
2022-12-17T21:06:46.765Z,14.20
2022-12-17T21:09:15.227Z,13.40
2022-12-17T21:11:42.598Z,12.60
2022-12-17T21:14:12.862Z,16.75
2022-12-17T21:16:41.211Z,17.17
2022-12-17T21:19:10.281Z,20.67
2022-12-17T21:21:38.647Z,16.85
2022-12-17T21:24:07.111Z,17.55
2022-12-17T21:26:40.056Z,13.15
2022-12-17T21:29:08.410Z,14.05
2022-12-17T21:31:41.747Z,11.57
2022-12-17T21:34:13.188Z,12.40
2022-12-17T21:36:41.081Z,12.25
2022-12-17T21:39:09.973Z,9.70
2022-12-17T21:41:44.269Z,14.93
2022-12-17T21:44:15.147Z,14.13
2022-12-17T21:46:43.457Z,11.70
2022-12-17T21:49:14.986Z,10.45
2022-12-17T21:51:42.274Z,9.68
2022-12-17T21:54:12.356Z,9.65
2022-12-17T21:56:42.861Z,10.18
2022-12-17T21:59:11.353Z,12.90
2022-12-17T22:01:38.420Z,12.20
2022-12-17T22:04:05.551Z,12.25
2022-12-17T22:06:47.045Z,13.48
2022-12-17T22:09:33.760Z,12.73
2022-12-17T22:12:30.448Z,11.88
2022-12-17T22:14:57.401Z,12.95
2022-12-17T22:17:24.851Z,10.90
2022-12-17T22:19:51.829Z,12.00
2022-12-17T22:22:18.829Z,9.43
2022-12-17T22:24:45.832Z,11.10
2022-12-17T22:27:13.020Z,10.63
2022-12-17T22:29:58.399Z,9.38
2022-12-17T22:32:47.224Z,10.35
2022-12-17T22:36:51.835Z,9.00
2022-12-17T22:40:28.856Z,9.35
2022-12-17T22:44:35.212Z,11.75
2022-12-17T22:44:44.908Z,10.70
2022-12-17T22:47:01.716Z,10.80
2022-12-17T22:49:29.282Z,12.65
2022-12-17T22:51:59.514Z,10.80
2022-12-17T22:54:45.983Z,9.45
2022-12-17T22:57:35.975Z,8.27
2022-12-17T23:00:18.512Z,13.07
2022-12-17T23:02:59.789Z,9.07
2022-12-17T23:05:37.643Z,9.52
2022-12-17T23:08:10.983Z,8.23
2022-12-17T23:10:44.450Z,7.88
2022-12-17T23:13:27.934Z,8.75
2022-12-17T23:16:06.004Z,9.40
2022-12-17T23:18:40.617Z,10.18
2022-12-17T23:21:26.609Z,8.73
2022-12-17T23:23:55.692Z,9.75
2022-12-17T23:26:29.615Z,9.63
2022-12-17T23:29:04.975Z,10.73
2022-12-17T23:31:48.626Z,7.35
2022-12-17T23:34:23.608Z,8.60
2022-12-17T23:37:02.211Z,8.18
2022-12-17T23:39:36.907Z,9.43
2022-12-17T23:42:14.479Z,8.30
2022-12-17T23:44:55.927Z,7.35
2022-12-17T23:47:28.539Z,9.30
2022-12-17T23:50:17.833Z,8.45
2022-12-17T23:52:53.823Z,9.23
2022-12-17T23:55:51.736Z,8.25
2022-12-17T23:58:19.601Z,7.10
